Time,TemperatureF,DewpointF,PressureIn,WindDirection,WindDirectionDegrees,WindSpeedMPH,WindSpeedGustMPH,Humidity,HourlyPrecipIn,Conditions,Clouds,dailyrainin,SoftwareType,DateUTC
2013-06-19 00:01:00,72.7,67.2,29.94,SSW,203,0.0,0.0,83,0.00,,,0.00,WUHU216HW,2013-06-19 04:01:00,
2013-06-19 00:06:00,72.7,67.2,29.95,SSW,203,0.2,0.2,83,0.00,,,0.00,WUHU216HW,2013-06-19 04:06:00,
2013-06-19 00:11:00,72.4,67.2,29.95,SSW,203,0.0,0.2,84,0.00,,,0.00,WUHU216HW,2013-06-19 04:11:00,
2013-06-19 00:16:00,72.4,67.2,29.95,SSW,203,0.0,0.2,84,0.00,,,0.00,WUHU216HW,2013-06-19 04:16:00,
2013-06-19 00:21:00,72.4,67.2,29.95,SSW,203,0.0,0.0,84,0.00,,,0.00,WUHU216HW,2013-06-19 04:21:00,
2013-06-19 00:26:00,72.4,67.2,29.95,SSW,203,0.0,0.0,84,0.00,,,0.00,WUHU216HW,2013-06-19 04:26:00,
2013-06-19 00:31:00,72.5,67.4,29.94,SSW,203,0.0,0.0,84,0.00,,,0.00,WUHU216HW,2013-06-19 04:31:00,
2013-06-19 00:36:00,72.5,67.4,29.95,SSW,203,0.0,0.0,84,0.00,,,0.00,WUHU216HW,2013-06-19 04:36:00,
2013-06-19 00:41:00,72.5,67.4,29.95,SSW,203,0.0,0.0,84,0.00,,,0.00,WUHU216HW,2013-06-19 04:41:00,
2013-06-19 00:46:00,72.5,67.8,29.94,SSW,203,0.0,0.0,85,0.00,,,0.00,WUHU216HW,2013-06-19 04:46:00,
2013-06-19 00:51:00,72.5,67.8,29.94,North,0,0.0,0.4,85,0.00,,,0.00,WUHU216HW,2013-06-19 04:51:00,
2013-06-19 00:56:00,72.5,67.8,29.94,NE,45,0.0,0.4,85,0.00,,,0.00,WUHU216HW,2013-06-19 04:56:00,
2013-06-19 01:01:00,72.5,67.8,29.94,NE,45,0.0,0.2,85,0.00,,,0.00,WUHU216HW,2013-06-19 05:01:00,
2013-06-19 01:06:00,72.4,67.6,29.94,NE,45,0.0,0.0,85,0.00,,,0.00,WUHU216HW,2013-06-19 05:06:00,
2013-06-19 01:11:00,72.5,67.8,29.94,NE,45,0.0,0.0,85,0.00,,,0.00,WUHU216HW,2013-06-19 05:11:00,
2013-06-19 01:16:00,72.4,67.6,29.94,East,90,0.0,0.0,85,0.00,,,0.00,WUHU216HW,2013-06-19 05:16:00,
2013-06-19 01:21:00,72.4,68.0,29.94,East,90,0.0,0.0,86,0.00,,,0.00,WUHU216HW,2013-06-19 05:21:00,
2013-06-19 01:26:00,72.4,68.0,29.94,SW,225,0.0,0.0,86,0.00,,,0.00,WUHU216HW,2013-06-19 05:26:00,
2013-06-19 01:31:00,72.4,68.0,29.94,WNW,293,0.0,1.1,86,0.00,,,0.00,WUHU216HW,2013-06-19 05:31:00,
2013-06-19 01:36:00,72.5,68.5,29.95,NW,315,0.4,1.1,87,0.00,,,0.00,WUHU216HW,2013-06-19 05:36:00,
2013-06-19 01:41:00,72.7,68.7,29.95,WSW,248,0.0,0.9,87,0.00,,,0.00,WUHU216HW,2013-06-19 05:41:00,
2013-06-19 01:46:00,72.7,68.7,29.95,WNW,293,0.9,1.1,87,0.00,,,0.00,WUHU216HW,2013-06-19 05:46:00,
2013-06-19 01:51:00,72.9,68.9,29.95,SSW,203,0.0,1.1,87,0.00,,,0.00,WUHU216HW,2013-06-19 05:51:00,
2013-06-19 01:56:00,72.9,69.1,29.95,NNW,338,1.1,1.1,88,0.00,,,0.00,WUHU216HW,2013-06-19 05:56:00,
2013-06-19 02:01:00,73.1,69.3,29.95,SSW,203,0.0,1.1,88,0.00,,,0.00,WUHU216HW,2013-06-19 06:01:00,
2013-06-19 02:06:00,73.1,69.7,29.95,SSW,203,0.7,1.1,89,0.00,,,0.00,WUHU216HW,2013-06-19 06:06:00,
2013-06-19 02:11:00,73.1,69.7,29.95,SSW,203,0.4,1.1,89,0.00,,,0.00,WUHU216HW,2013-06-19 06:11:00,
2013-06-19 02:16:00,73.1,69.7,29.95,SSW,203,0.7,1.1,89,0.00,,,0.00,WUHU216HW,2013-06-19 06:16:00,
2013-06-19 02:21:00,73.1,69.7,29.95,SSE,158,0.4,1.1,89,0.00,,,0.00,WUHU216HW,2013-06-19 06:21:00,
2013-06-19 02:26:00,73.3,69.8,29.95,South,180,0.0,1.1,89,0.00,,,0.00,WUHU216HW,2013-06-19 06:26:00,
2013-06-19 02:31:00,73.3,69.8,29.95,SSW,203,1.8,1.8,89,0.00,,,0.00,WUHU216HW,2013-06-19 06:31:00,
2013-06-19 02:36:00,73.4,70.0,29.95,SSW,203,0.0,1.8,89,0.00,,,0.00,WUHU216HW,2013-06-19 06:36:00,
2013-06-19 02:41:00,73.4,70.0,29.95,SSW,203,0.0,1.6,89,0.00,,,0.00,WUHU216HW,2013-06-19 06:41:00,
2013-06-19 02:46:00,73.4,70.0,29.95,WNW,293,0.0,1.1,89,0.00,,,0.00,WUHU216HW,2013-06-19 06:46:00,
2013-06-19 02:51:00,73.6,70.2,29.95,SSE,158,0.0,0.9,89,0.00,,,0.00,WUHU216HW,2013-06-19 06:51:00,
2013-06-19 02:56:00,73.6,70.2,29.95,North,0,0.4,0.9,89,0.00,,,0.00,WUHU216HW,2013-06-19 06:56:00,
2013-06-19 03:01:00,73.8,70.4,29.95,NW,315,0.0,0.7,89,0.00,,,0.00,WUHU216HW,2013-06-19 07:01:00,
2013-06-19 03:06:00,73.8,70.4,29.95,NNW,338,0.0,0.9,89,0.00,,,0.00,WUHU216HW,2013-06-19 07:06:00,
2013-06-19 03:11:00,73.8,70.4,29.95,North,0,0.0,0.9,89,0.00,,,0.00,WUHU216HW,2013-06-19 07:11:00,
2013-06-19 03:16:00,73.8,70.4,29.95,SSW,203,0.0,0.9,89,0.00,,,0.00,WUHU216HW,2013-06-19 07:16:00,
2013-06-19 03:21:00,73.8,70.4,29.95,South,180,0.0,0.9,89,0.00,,,0.00,WUHU216HW,2013-06-19 07:21:00,
2013-06-19 03:26:00,73.6,70.2,29.95,SSW,203,0.0,1.3,89,0.00,,,0.00,WUHU216HW,2013-06-19 07:26:00,
2013-06-19 03:31:00,73.6,70.2,29.95,West,270,0.0,1.3,89,0.00,,,0.00,WUHU216HW,2013-06-19 07:31:00,
2013-06-19 03:36:00,73.4,70.0,29.95,SSW,203,0.0,0.9,89,0.00,,,0.00,WUHU216HW,2013-06-19 07:36:00,
2013-06-19 03:41:00,73.4,70.0,29.95,South,180,0.4,0.9,89,0.00,,,0.00,WUHU216HW,2013-06-19 07:41:00,
2013-06-19 03:46:00,73.3,69.8,29.95,SSE,158,0.0,1.1,89,0.00,,,0.00,WUHU216HW,2013-06-19 07:46:00,
2013-06-19 03:51:00,73.3,69.8,29.95,SSW,203,0.2,1.1,89,0.00,,,0.00,WUHU216HW,2013-06-19 07:51:00,
2013-06-19 03:56:00,73.3,69.8,29.95,SSW,203,0.0,1.1,89,0.00,,,0.00,WUHU216HW,2013-06-19 07:56:00,
2013-06-19 04:01:00,73.3,69.8,29.95,WSW,248,0.2,0.9,89,0.00,,,0.00,WUHU216HW,2013-06-19 08:01:00,
2013-06-19 04:06:00,73.1,69.7,29.95,South,180,0.0,0.9,89,0.00,,,0.00,WUHU216HW,2013-06-19 08:06:00,
2013-06-19 04:11:00,73.1,69.7,29.95,SSW,203,0.4,0.9,89,0.00,,,0.00,WUHU216HW,2013-06-19 08:11:00,
2013-06-19 04:16:00,73.1,69.7,29.95,South,180,0.0,0.9,89,0.00,,,0.00,WUHU216HW,2013-06-19 08:16:00,
2013-06-19 04:21:00,73.1,69.7,29.95,SSW,203,0.0,0.4,89,0.00,,,0.00,WUHU216HW,2013-06-19 08:21:00,
2013-06-19 04:26:00,73.1,69.7,29.95,South,180,0.7,0.7,89,0.00,,,0.00,WUHU216HW,2013-06-19 08:26:00,
2013-06-19 04:31:00,73.1,69.7,29.95,South,180,0.9,1.6,89,0.00,,,0.00,WUHU216HW,2013-06-19 08:31:00,
2013-06-19 04:36:00,73.1,69.7,29.95,SSW,203,0.9,1.6,89,0.00,,,0.00,WUHU216HW,2013-06-19 08:36:00,
2013-06-19 04:41:00,73.1,69.7,29.95,SSW,203,1.3,1.6,89,0.00,,,0.00,WUHU216HW,2013-06-19 08:41:00,
2013-06-19 04:46:00,73.3,69.8,29.95,SSW,203,0.7,1.3,89,0.00,,,0.00,WUHU216HW,2013-06-19 08:46:00,
2013-06-19 04:51:00,73.3,69.8,29.95,SSW,203,0.0,1.1,89,0.00,,,0.00,WUHU216HW,2013-06-19 08:51:00,
2013-06-19 04:56:00,73.3,69.8,29.95,SSW,203,0.7,1.3,89,0.00,,,0.00,WUHU216HW,2013-06-19 08:56:00,
2013-06-19 05:01:00,73.3,69.8,29.95,SSW,203,1.8,2.0,89,0.00,,,0.00,WUHU216HW,2013-06-19 09:01:00,
2013-06-19 05:06:00,73.3,69.8,29.95,SSW,203,1.3,2.0,89,0.00,,,0.00,WUHU216HW,2013-06-19 09:06:00,
2013-06-19 05:11:00,73.3,69.8,29.95,SSW,203,0.2,1.8,89,0.00,,,0.00,WUHU216HW,2013-06-19 09:11:00,
2013-06-19 05:16:00,73.3,69.8,29.95,SSW,203,0.4,1.8,89,0.00,,,0.00,WUHU216HW,2013-06-19 09:16:00,
2013-06-19 05:21:00,73.3,69.8,29.95,SSE,158,0.0,1.1,89,0.00,,,0.00,WUHU216HW,2013-06-19 09:21:00,
2013-06-19 05:26:00,73.1,69.7,29.94,NE,45,0.0,0.9,89,0.00,,,0.00,WUHU216HW,2013-06-19 09:26:00,
2013-06-19 05:31:00,73.1,69.7,29.95,NNE,23,0.0,0.4,89,0.00,,,0.00,WUHU216HW,2013-06-19 09:31:00,
2013-06-19 05:36:00,73.1,69.7,29.95,SSE,158,0.4,0.7,89,0.00,,,0.00,WUHU216HW,2013-06-19 09:36:00,
2013-06-19 05:41:00,73.1,69.3,29.95,SSW,203,0.2,0.9,88,0.00,,,0.00,WUHU216HW,2013-06-19 09:41:00,
2013-06-19 05:46:00,73.1,69.3,29.96,SSW,203,0.4,0.9,88,0.00,,,0.00,WUHU216HW,2013-06-19 09:46:00,
2013-06-19 05:51:00,73.1,69.7,29.96,SSW,203,0.0,1.1,89,0.00,,,0.00,WUHU216HW,2013-06-19 09:51:00,
2013-06-19 05:56:00,73.1,69.7,29.96,SSW,203,0.0,1.1,89,0.00,,,0.00,WUHU216HW,2013-06-19 09:56:00,
2013-06-19 06:01:00,73.1,69.7,29.96,NNW,338,0.7,1.1,89,0.00,,,0.00,WUHU216HW,2013-06-19 10:01:00,
2013-06-19 06:06:00,73.1,69.7,29.96,SSW,203,0.0,1.1,89,0.00,,,0.00,WUHU216HW,2013-06-19 10:06:00,
2013-06-19 06:11:00,73.3,69.8,29.97,SSW,203,0.0,1.1,89,0.00,,,0.00,WUHU216HW,2013-06-19 10:11:00,
2013-06-19 06:16:00,73.3,69.8,29.97,SW,225,0.7,0.7,89,0.00,,,0.00,WUHU216HW,2013-06-19 10:16:00,
2013-06-19 06:21:00,73.3,69.8,29.97,SSW,203,0.4,1.1,89,0.00,,,0.00,WUHU216HW,2013-06-19 10:21:00,
2013-06-19 06:26:00,73.3,69.8,29.97,NNW,338,0.0,1.1,89,0.00,,,0.00,WUHU216HW,2013-06-19 10:26:00,
2013-06-19 06:31:00,73.3,69.8,29.97,SSW,203,0.7,0.9,89,0.00,,,0.00,WUHU216HW,2013-06-19 10:31:00,
2013-06-19 06:36:00,73.4,70.0,29.98,SW,225,1.1,1.1,89,0.00,,,0.00,WUHU216HW,2013-06-19 10:36:00,
2013-06-19 06:41:00,73.4,70.0,29.97,SSE,158,0.0,1.1,89,0.04,,,0.04,WUHU216HW,2013-06-19 10:41:00,
2013-06-19 06:46:00,73.4,70.0,29.97,SSW,203,0.0,1.1,89,0.04,,,0.04,WUHU216HW,2013-06-19 10:46:00,
2013-06-19 06:51:00,73.4,70.0,29.98,SSW,203,0.0,0.9,89,0.04,,,0.04,WUHU216HW,2013-06-19 10:51:00,
2013-06-19 06:56:00,73.4,70.0,29.98,NW,315,1.1,1.1,89,0.04,,,0.04,WUHU216HW,2013-06-19 10:56:00,
2013-06-19 07:01:00,73.4,70.0,29.98,SSW,203,0.4,1.1,89,0.04,,,0.04,WUHU216HW,2013-06-19 11:01:00,
2013-06-19 07:06:00,73.4,70.0,29.98,South,180,0.0,1.8,89,0.04,,,0.04,WUHU216HW,2013-06-19 11:06:00,
2013-06-19 07:11:00,73.4,70.4,29.98,SSW,203,1.3,1.8,90,0.04,,,0.04,WUHU216HW,2013-06-19 11:11:00,
2013-06-19 07:16:00,73.4,70.4,29.99,SSW,203,0.0,1.3,90,0.04,,,0.04,WUHU216HW,2013-06-19 11:16:00,
2013-06-19 07:21:00,73.6,70.6,29.99,WNW,293,0.4,1.6,90,0.04,,,0.04,WUHU216HW,2013-06-19 11:21:00,
2013-06-19 07:26:00,73.6,70.6,29.99,SSW,203,0.0,1.6,90,0.04,,,0.04,WUHU216HW,2013-06-19 11:26:00,
2013-06-19 07:31:00,73.6,70.6,29.99,SSW,203,0.2,1.3,90,0.04,,,0.04,WUHU216HW,2013-06-19 11:31:00,
2013-06-19 07:36:00,73.8,70.7,29.99,SSW,203,0.2,1.1,90,0.04,,,0.04,WUHU216HW,2013-06-19 11:36:00,
2013-06-19 07:41:00,73.8,70.7,30.00,WNW,293,0.0,1.3,90,0.00,,,0.04,WUHU216HW,2013-06-19 11:41:00,
2013-06-19 07:46:00,74.2,70.7,29.99,NW,315,1.3,1.3,89,0.00,,,0.04,WUHU216HW,2013-06-19 11:46:00,
2013-06-19 07:51:00,74.2,70.7,30.00,NNW,338,0.4,1.8,89,0.00,,,0.04,WUHU216HW,2013-06-19 11:51:00,
2013-06-19 07:56:00,74.5,71.1,30.00,SSW,203,0.4,1.8,89,0.00,,,0.04,WUHU216HW,2013-06-19 11:56:00,
2013-06-19 08:01:00,74.7,71.3,30.00,SW,225,0.0,1.8,89,0.00,,,0.04,WUHU216HW,2013-06-19 12:01:00,
2013-06-19 08:06:00,74.9,71.5,29.99,South,180,0.2,1.1,89,0.00,,,0.04,WUHU216HW,2013-06-19 12:06:00,
2013-06-19 08:11:00,74.9,71.5,29.99,NNW,338,0.0,1.3,89,0.00,,,0.04,WUHU216HW,2013-06-19 12:11:00,
2013-06-19 08:16:00,75.2,71.8,29.99,SSE,158,0.4,1.3,89,0.00,,,0.04,WUHU216HW,2013-06-19 12:16:00,
2013-06-19 08:21:00,75.6,71.8,30.00,ESE,113,1.1,1.1,88,0.00,,,0.04,WUHU216HW,2013-06-19 12:21:00,
2013-06-19 08:26:00,76.0,72.2,30.00,SSE,158,0.9,1.1,88,0.00,,,0.04,WUHU216HW,2013-06-19 12:26:00,
2013-06-19 08:31:00,76.0,71.8,30.00,SSW,203,1.8,1.8,87,0.00,,,0.04,WUHU216HW,2013-06-19 12:31:00,
2013-06-19 08:36:00,76.0,71.8,30.00,NW,315,0.9,2.5,87,0.00,,,0.04,WUHU216HW,2013-06-19 12:36:00,
2013-06-19 08:41:00,76.0,71.8,30.00,SSE,158,0.2,2.5,87,0.00,,,0.04,WUHU216HW,2013-06-19 12:41:00,
2013-06-19 08:46:00,76.3,72.2,30.00,SSW,203,0.4,1.6,87,0.00,,,0.04,WUHU216HW,2013-06-19 12:46:00,
2013-06-19 08:51:00,76.5,72.0,30.01,SSW,203,0.2,1.6,86,0.00,,,0.04,WUHU216HW,2013-06-19 12:51:00,
2013-06-19 08:56:00,76.9,72.4,30.01,West,270,0.7,1.3,86,0.00,,,0.04,WUHU216HW,2013-06-19 12:56:00,
2013-06-19 09:01:00,76.9,72.0,30.01,NW,315,0.7,1.8,85,0.00,,,0.04,WUHU216HW,2013-06-19 13:01:00,
2013-06-19 09:06:00,76.9,72.0,30.01,North,0,0.4,1.8,85,0.00,,,0.04,WUHU216HW,2013-06-19 13:06:00,
2013-06-19 09:11:00,76.9,72.0,30.01,NW,315,0.4,1.3,85,0.00,,,0.04,WUHU216HW,2013-06-19 13:11:00,
2013-06-19 09:16:00,77.4,72.5,30.01,NW,315,0.2,2.2,85,0.00,,,0.04,WUHU216HW,2013-06-19 13:16:00,
2013-06-19 09:21:00,78.1,73.3,30.01,NNW,338,1.1,2.2,85,0.00,,,0.04,WUHU216HW,2013-06-19 13:21:00,
2013-06-19 09:26:00,78.8,72.9,30.01,North,0,1.8,2.5,82,0.00,,,0.04,WUHU216HW,2013-06-19 13:26:00,
2013-06-19 09:31:00,79.2,72.9,30.01,North,0,1.6,2.5,81,0.00,,,0.04,WUHU216HW,2013-06-19 13:31:00,
2013-06-19 09:36:00,80.1,73.8,30.01,South,180,0.9,2.5,81,0.00,,,0.04,WUHU216HW,2013-06-19 13:36:00,
2013-06-19 09:41:00,81.5,74.9,30.02,NW,315,0.7,3.4,80,0.00,,,0.04,WUHU216HW,2013-06-19 13:41:00,
2013-06-19 09:46:00,81.7,74.3,30.02,North,0,0.2,3.4,78,0.00,,,0.04,WUHU216HW,2013-06-19 13:46:00,
2013-06-19 09:51:00,81.4,73.9,30.02,SE,135,0.0,2.2,78,0.00,,,0.04,WUHU216HW,2013-06-19 13:51:00,
2013-06-19 09:56:00,81.4,73.5,30.02,NW,315,1.3,2.0,77,0.00,,,0.04,WUHU216HW,2013-06-19 13:56:00,
2013-06-19 10:01:00,81.2,72.6,30.02,NNW,338,1.1,2.5,75,0.00,,,0.04,WUHU216HW,2013-06-19 14:01:00,
2013-06-19 10:06:00,81.0,73.2,30.02,ENE,68,0.4,2.5,77,0.00,,,0.04,WUHU216HW,2013-06-19 14:06:00,
2013-06-19 10:11:00,81.4,73.1,30.02,NE,45,0.7,1.3,76,0.00,,,0.04,WUHU216HW,2013-06-19 14:11:00,
2013-06-19 10:17:00,81.9,73.6,30.02,SSW,203,0.7,3.1,76,0.00,,,0.04,WUHU216HW,2013-06-19 14:17:00,
2013-06-19 10:22:00,81.9,73.2,30.02,North,0,0.7,3.1,75,0.00,,,0.04,WUHU216HW,2013-06-19 14:22:00,
2013-06-19 10:27:00,81.2,72.6,30.02,ESE,113,0.7,3.4,75,0.00,,,0.04,WUHU216HW,2013-06-19 14:27:00,
2013-06-19 10:32:00,80.8,72.2,30.02,ENE,68,1.3,3.4,75,0.00,,,0.04,WUHU216HW,2013-06-19 14:32:00,
2013-06-19 10:37:00,80.5,71.8,30.02,North,0,0.7,2.5,75,0.00,,,0.04,WUHU216HW,2013-06-19 14:37:00,
2013-06-19 10:42:00,80.3,72.0,30.02,ESE,113,2.5,2.5,76,0.00,,,0.04,WUHU216HW,2013-06-19 14:42:00,
2013-06-19 10:47:00,80.3,72.0,30.03,North,0,0.4,2.5,76,0.00,,,0.04,WUHU216HW,2013-06-19 14:47:00,
2013-06-19 10:52:00,80.3,71.6,30.03,NNW,338,1.6,2.5,75,0.00,,,0.04,WUHU216HW,2013-06-19 14:52:00,
2013-06-19 10:57:00,80.6,72.4,30.03,NNE,23,0.2,1.8,76,0.00,,,0.04,WUHU216HW,2013-06-19 14:57:00,
2013-06-19 11:02:00,81.5,72.8,30.03,NNW,338,1.6,2.5,75,0.00,,,0.04,WUHU216HW,2013-06-19 15:02:00,
2013-06-19 11:07:00,81.9,73.6,30.03,SSW,203,0.9,2.9,76,0.00,,,0.04,WUHU216HW,2013-06-19 15:07:00,
2013-06-19 11:12:00,82.4,73.7,30.03,NW,315,1.1,2.9,75,0.00,,,0.04,WUHU216HW,2013-06-19 15:12:00,
2013-06-19 11:17:00,82.8,74.1,30.03,WNW,293,2.2,2.5,75,0.00,,,0.04,WUHU216HW,2013-06-19 15:17:00,
2013-06-19 11:22:00,83.2,73.2,30.03,NNW,338,2.5,2.5,72,0.00,,,0.04,WUHU216HW,2013-06-19 15:22:00,
2013-06-19 11:27:00,82.4,72.5,30.03,East,90,2.0,3.4,72,0.00,,,0.04,WUHU216HW,2013-06-19 15:27:00,
2013-06-19 11:32:00,81.0,71.1,30.04,NE,45,2.0,3.4,72,0.00,,,0.04,WUHU216HW,2013-06-19 15:32:00,
2013-06-19 11:37:00,80.3,71.3,30.04,NNE,23,1.6,2.5,74,0.00,,,0.04,WUHU216HW,2013-06-19 15:37:00,
2013-06-19 11:42:00,80.3,71.6,30.04,NNW,338,1.1,2.5,75,0.00,,,0.04,WUHU216HW,2013-06-19 15:42:00,
2013-06-19 11:47:00,80.8,71.7,30.04,ESE,113,1.1,2.2,74,0.00,,,0.04,WUHU216HW,2013-06-19 15:47:00,
2013-06-19 11:52:00,81.5,72.0,30.04,WNW,293,1.1,3.4,73,0.00,,,0.04,WUHU216HW,2013-06-19 15:52:00,
2013-06-19 11:57:00,83.0,73.5,30.03,NNW,338,0.9,3.4,73,0.00,,,0.04,WUHU216HW,2013-06-19 15:57:00,
2013-06-19 12:02:00,84.6,74.6,30.03,NW,315,2.7,2.7,72,0.00,,,0.04,WUHU216HW,2013-06-19 16:02:00,
2013-06-19 12:07:00,85.7,75.2,30.04,SSW,203,1.1,2.9,71,0.00,,,0.04,WUHU216HW,2013-06-19 16:07:00,
2013-06-19 12:12:00,86.4,75.1,30.04,NNW,338,1.1,2.9,69,0.00,,,0.04,WUHU216HW,2013-06-19 16:12:00,
2013-06-19 12:17:00,86.2,73.1,30.03,NNW,338,1.6,2.5,65,0.00,,,0.04,WUHU216HW,2013-06-19 16:17:00,
2013-06-19 12:22:00,85.0,72.8,30.03,NNW,338,0.4,2.9,67,0.00,,,0.04,WUHU216HW,2013-06-19 16:22:00,
2013-06-19 12:27:00,84.2,72.5,30.03,NW,315,1.6,2.9,68,0.00,,,0.04,WUHU216HW,2013-06-19 16:27:00,
2013-06-19 12:32:00,84.1,72.8,30.03,WNW,293,0.2,2.5,69,0.00,,,0.04,WUHU216HW,2013-06-19 16:32:00,
2013-06-19 12:37:00,83.9,72.6,30.03,WNW,293,0.9,2.2,69,0.00,,,0.04,WUHU216HW,2013-06-19 16:37:00,
2013-06-19 12:42:00,83.5,72.3,30.03,North,0,0.2,1.8,69,0.00,,,0.04,WUHU216HW,2013-06-19 16:42:00,
2013-06-19 12:47:00,83.3,72.1,30.03,North,0,1.3,2.0,69,0.00,,,0.04,WUHU216HW,2013-06-19 16:47:00,
2013-06-19 12:52:00,83.2,72.4,30.03,NNW,338,0.7,2.0,70,0.00,,,0.04,WUHU216HW,2013-06-19 16:52:00,
2013-06-19 12:57:00,83.0,72.6,30.03,SSW,203,0.9,2.0,71,0.00,,,0.04,WUHU216HW,2013-06-19 16:57:00,
2013-06-19 13:02:00,83.3,72.9,30.03,WNW,293,1.8,1.8,71,0.00,,,0.04,WUHU216HW,2013-06-19 17:02:00,
2013-06-19 13:07:00,83.7,72.9,30.03,North,0,0.9,2.0,70,0.00,,,0.04,WUHU216HW,2013-06-19 17:07:00,
2013-06-19 13:12:00,83.9,73.4,30.03,SE,135,0.0,2.0,71,0.00,,,0.04,WUHU216HW,2013-06-19 17:12:00,
2013-06-19 13:17:00,83.9,73.1,30.03,WNW,293,0.2,2.0,70,0.00,,,0.04,WUHU216HW,2013-06-19 17:17:00,
2013-06-19 13:22:00,83.5,73.1,30.03,WNW,293,1.8,3.6,71,0.00,,,0.04,WUHU216HW,2013-06-19 17:22:00,
2013-06-19 13:27:00,82.6,72.6,30.03,ESE,113,1.8,3.6,72,0.00,,,0.04,WUHU216HW,2013-06-19 17:27:00,
2013-06-19 13:32:00,81.9,71.6,30.03,NW,315,2.7,3.6,71,0.00,,,0.04,WUHU216HW,2013-06-19 17:32:00,
2013-06-19 13:37:00,81.5,72.0,30.03,South,180,1.1,2.9,73,0.00,,,0.04,WUHU216HW,2013-06-19 17:37:00,
2013-06-19 13:42:00,81.7,72.6,30.03,SW,225,1.6,2.9,74,0.00,,,0.04,WUHU216HW,2013-06-19 17:42:00,
2013-06-19 13:47:00,81.7,73.0,30.03,NW,315,0.9,2.9,75,0.00,,,0.04,WUHU216HW,2013-06-19 17:47:00,
2013-06-19 13:52:00,81.4,72.7,30.03,NW,315,0.9,2.5,75,0.05,,,0.09,WUHU216HW,2013-06-19 17:52:00,
2013-06-19 13:57:00,81.4,72.7,30.02,SSW,203,0.4,2.0,75,0.07,,,0.11,WUHU216HW,2013-06-19 17:57:00,
2013-06-19 14:02:00,81.7,73.0,30.02,WSW,248,0.7,1.6,75,0.07,,,0.11,WUHU216HW,2013-06-19 18:02:00,
2013-06-19 14:07:00,81.9,73.6,30.02,NNW,338,1.6,1.8,76,0.07,,,0.11,WUHU216HW,2013-06-19 18:07:00,
2013-06-19 14:12:00,82.1,74.2,30.02,NNW,338,0.7,1.8,77,0.07,,,0.11,WUHU216HW,2013-06-19 18:12:00,
2013-06-19 14:17:00,83.0,75.1,30.02,NW,315,1.6,2.5,77,0.07,,,0.11,WUHU216HW,2013-06-19 18:17:00,
2013-06-19 14:22:00,84.6,76.1,30.02,SSW,203,0.2,2.5,76,0.07,,,0.11,WUHU216HW,2013-06-19 18:22:00,
2013-06-19 14:27:00,86.0,76.9,30.02,SSW,203,1.1,2.5,74,0.07,,,0.11,WUHU216HW,2013-06-19 18:27:00,
2013-06-19 14:32:00,86.0,76.1,30.02,South,180,0.4,2.9,72,0.07,,,0.11,WUHU216HW,2013-06-19 18:32:00,
2013-06-19 14:37:00,84.8,73.5,30.02,NNW,338,1.8,3.6,69,0.07,,,0.11,WUHU216HW,2013-06-19 18:37:00,
2013-06-19 14:42:00,83.7,72.9,30.02,North,0,1.8,4.9,70,0.07,,,0.11,WUHU216HW,2013-06-19 18:42:00,
2013-06-19 14:47:00,82.4,72.1,30.02,North,0,2.2,4.9,71,0.07,,,0.11,WUHU216HW,2013-06-19 18:47:00,
2013-06-19 14:52:00,81.5,72.5,30.02,NNW,338,3.4,4.0,74,0.02,,,0.11,WUHU216HW,2013-06-19 18:52:00,
2013-06-19 14:57:00,79.7,71.5,30.03,North,0,3.4,6.3,76,0.00,,,0.11,WUHU216HW,2013-06-19 18:57:00,
2013-06-19 15:02:00,78.5,71.5,30.02,NNW,338,0.7,6.3,79,0.00,,,0.11,WUHU216HW,2013-06-19 19:02:00,
2013-06-19 15:07:00,78.1,71.8,30.03,East,90,1.6,4.7,81,0.00,,,0.11,WUHU216HW,2013-06-19 19:07:00,
2013-06-19 15:12:00,77.9,71.6,30.03,ESE,113,1.6,4.3,81,0.02,,,0.13,WUHU216HW,2013-06-19 19:12:00,
2013-06-19 15:17:00,77.6,71.3,30.03,SE,135,0.4,4.3,81,0.02,,,0.13,WUHU216HW,2013-06-19 19:17:00,
2013-06-19 15:22:00,77.4,71.5,30.03,NE,45,0.7,2.5,82,0.02,,,0.13,WUHU216HW,2013-06-19 19:22:00,
2013-06-19 15:27:00,77.0,71.5,30.02,NNE,23,1.1,2.7,83,0.02,,,0.13,WUHU216HW,2013-06-19 19:27:00,
2013-06-19 15:32:00,76.7,71.1,30.02,NNE,23,0.2,2.7,83,0.02,,,0.13,WUHU216HW,2013-06-19 19:32:00,
2013-06-19 15:37:00,76.7,71.5,30.02,NW,315,2.9,2.9,84,0.02,,,0.13,WUHU216HW,2013-06-19 19:37:00,
2013-06-19 15:42:00,76.7,71.5,30.02,NNE,23,2.5,4.0,84,0.02,,,0.13,WUHU216HW,2013-06-19 19:42:00,
2013-06-19 15:47:00,77.0,71.8,30.02,NNE,23,1.1,4.0,84,0.02,,,0.13,WUHU216HW,2013-06-19 19:47:00,
2013-06-19 15:52:00,77.8,72.2,30.02,ENE,68,1.1,2.7,83,0.02,,,0.13,WUHU216HW,2013-06-19 19:52:00,
2013-06-19 15:57:00,78.1,72.5,30.03,North,0,1.8,4.9,83,0.02,,,0.13,WUHU216HW,2013-06-19 19:57:00,
2013-06-19 16:02:00,78.3,72.4,30.03,NE,45,1.1,4.9,82,0.02,,,0.13,WUHU216HW,2013-06-19 20:02:00,
2013-06-19 16:07:00,78.1,72.2,30.02,SSE,158,0.4,6.5,82,0.02,,,0.13,WUHU216HW,2013-06-19 20:07:00,
2013-06-19 16:12:00,77.9,71.6,30.03,NE,45,2.0,6.5,81,0.00,,,0.13,WUHU216HW,2013-06-19 20:12:00,
2013-06-19 16:17:00,77.9,71.3,30.02,ENE,68,2.5,5.4,80,0.00,,,0.13,WUHU216HW,2013-06-19 20:17:00,
2013-06-19 16:22:00,77.8,71.1,30.03,NE,45,4.7,5.4,80,0.00,,,0.13,WUHU216HW,2013-06-19 20:22:00,
2013-06-19 16:27:00,77.8,71.1,30.02,East,90,1.6,6.7,80,0.00,,,0.13,WUHU216HW,2013-06-19 20:27:00,
2013-06-19 16:32:00,77.6,71.3,30.02,ESE,113,2.2,6.7,81,0.00,,,0.13,WUHU216HW,2013-06-19 20:32:00,
2013-06-19 16:37:00,77.8,71.5,30.02,East,90,0.7,4.7,81,0.00,,,0.13,WUHU216HW,2013-06-19 20:37:00,
2013-06-19 16:42:00,77.8,71.1,30.02,North,0,1.8,4.0,80,0.00,,,0.13,WUHU216HW,2013-06-19 20:42:00,
2013-06-19 16:47:00,77.8,70.8,30.02,ENE,68,0.9,5.1,79,0.00,,,0.13,WUHU216HW,2013-06-19 20:47:00,
2013-06-19 16:52:00,77.8,71.1,30.02,ESE,113,2.7,5.1,80,0.00,,,0.13,WUHU216HW,2013-06-19 20:52:00,
2013-06-19 16:57:00,78.1,71.1,30.02,ENE,68,5.6,5.6,79,0.00,,,0.13,WUHU216HW,2013-06-19 20:57:00,
2013-06-19 17:02:00,78.1,70.7,30.02,ENE,68,4.7,5.6,78,0.00,,,0.13,WUHU216HW,2013-06-19 21:02:00,
2013-06-19 17:07:00,77.8,70.3,30.02,NNW,338,3.4,5.6,78,0.00,,,0.13,WUHU216HW,2013-06-19 21:07:00,
2013-06-19 17:12:00,77.9,70.5,30.02,ESE,113,3.4,4.7,78,0.00,,,0.13,WUHU216HW,2013-06-19 21:12:00,
2013-06-19 17:17:00,77.8,70.3,30.02,NNW,338,2.2,5.1,78,0.00,,,0.13,WUHU216HW,2013-06-19 21:17:00,
2013-06-19 17:22:00,77.8,70.3,30.02,East,90,2.5,6.0,78,0.00,,,0.13,WUHU216HW,2013-06-19 21:22:00,
2013-06-19 17:27:00,77.9,70.5,30.02,East,90,1.1,6.0,78,0.00,,,0.13,WUHU216HW,2013-06-19 21:27:00,
2013-06-19 17:32:00,78.1,70.7,30.02,NE,45,1.6,2.5,78,0.00,,,0.13,WUHU216HW,2013-06-19 21:32:00,
2013-06-19 17:37:00,77.9,70.5,30.03,SSW,203,0.2,5.8,78,0.00,,,0.13,WUHU216HW,2013-06-19 21:37:00,
2013-06-19 17:42:00,77.8,70.3,30.03,NW,315,0.2,5.8,78,0.00,,,0.13,WUHU216HW,2013-06-19 21:42:00,
2013-06-19 17:47:00,77.4,70.0,30.03,NNW,338,1.8,3.8,78,0.00,,,0.13,WUHU216HW,2013-06-19 21:47:00,
2013-06-19 17:52:00,77.4,70.4,30.03,NE,45,0.4,3.4,79,0.00,,,0.13,WUHU216HW,2013-06-19 21:52:00,
2013-06-19 17:57:00,77.4,70.4,30.02,North,0,1.8,4.5,79,0.00,,,0.13,WUHU216HW,2013-06-19 21:57:00,
2013-06-19 18:02:00,77.4,70.4,30.03,East,90,0.7,4.5,79,0.00,,,0.13,WUHU216HW,2013-06-19 22:02:00,
2013-06-19 18:07:00,77.4,70.4,30.03,East,90,0.0,4.5,79,0.00,,,0.13,WUHU216HW,2013-06-19 22:07:00,
2013-06-19 18:12:00,77.8,71.1,30.03,ESE,113,0.7,1.8,80,0.00,,,0.13,WUHU216HW,2013-06-19 22:12:00,
2013-06-19 18:17:00,77.9,70.9,30.04,NE,45,0.9,3.4,79,0.00,,,0.13,WUHU216HW,2013-06-19 22:17:00,
2013-06-19 18:22:00,77.9,70.9,30.04,ENE,68,0.7,3.4,79,0.00,,,0.13,WUHU216HW,2013-06-19 22:22:00,
2013-06-19 18:27:00,78.1,71.5,30.04,East,90,1.3,2.2,80,0.00,,,0.13,WUHU216HW,2013-06-19 22:27:00,
2013-06-19 18:32:00,78.1,71.5,30.04,East,90,0.9,2.5,80,0.00,,,0.13,WUHU216HW,2013-06-19 22:32:00,
2013-06-19 18:37:00,78.1,71.5,30.04,NE,45,0.4,2.9,80,0.00,,,0.13,WUHU216HW,2013-06-19 22:37:00,
2013-06-19 18:42:00,78.1,71.5,30.04,SE,135,1.1,2.9,80,0.00,,,0.13,WUHU216HW,2013-06-19 22:42:00,
2013-06-19 18:47:00,78.1,71.5,30.05,East,90,0.4,1.8,80,0.00,,,0.13,WUHU216HW,2013-06-19 22:47:00,
2013-06-19 18:52:00,78.1,71.5,30.04,SE,135,1.3,2.0,80,0.00,,,0.13,WUHU216HW,2013-06-19 22:52:00,
2013-06-19 18:57:00,78.1,71.5,30.05,ENE,68,0.4,2.5,80,0.00,,,0.13,WUHU216HW,2013-06-19 22:57:00,
2013-06-19 19:02:00,78.3,71.6,30.04,NE,45,1.1,2.5,80,0.00,,,0.13,WUHU216HW,2013-06-19 23:02:00,
2013-06-19 19:07:00,78.3,71.6,30.04,ENE,68,1.8,2.9,80,0.00,,,0.13,WUHU216HW,2013-06-19 23:07:00,
2013-06-19 19:12:00,78.1,71.5,30.04,ENE,68,1.8,2.9,80,0.00,,,0.13,WUHU216HW,2013-06-19 23:12:00,
2013-06-19 19:17:00,78.1,71.1,30.04,ENE,68,1.6,2.5,79,0.00,,,0.13,WUHU216HW,2013-06-19 23:17:00,
2013-06-19 19:22:00,77.9,70.9,30.04,ENE,68,0.9,6.9,79,0.00,,,0.13,WUHU216HW,2013-06-19 23:22:00,
2013-06-19 19:27:00,77.8,70.8,30.05,ESE,113,0.2,6.9,79,0.00,,,0.13,WUHU216HW,2013-06-19 23:27:00,
2013-06-19 19:32:00,77.6,70.6,30.04,North,0,0.4,5.6,79,0.00,,,0.13,WUHU216HW,2013-06-19 23:32:00,
2013-06-19 19:37:00,77.6,70.6,30.05,WNW,293,0.9,4.0,79,0.00,,,0.13,WUHU216HW,2013-06-19 23:37:00,
2013-06-19 19:42:00,77.6,70.6,30.05,ESE,113,0.4,4.0,79,0.00,,,0.13,WUHU216HW,2013-06-19 23:42:00,
2013-06-19 19:47:00,77.4,70.0,30.05,ENE,68,0.7,4.0,78,0.00,,,0.13,WUHU216HW,2013-06-19 23:47:00,
2013-06-19 19:52:00,77.4,70.0,30.06,East,90,1.3,4.0,78,0.00,,,0.13,WUHU216HW,2013-06-19 23:52:00,
2013-06-19 19:57:00,77.0,69.2,30.06,ESE,113,1.8,4.7,77,0.00,,,0.13,WUHU216HW,2013-06-19 23:57:00,
2013-06-19 20:02:00,76.9,69.5,30.06,SE,135,0.9,4.7,78,0.00,,,0.13,WUHU216HW,2013-06-20 00:02:00,
2013-06-19 20:07:00,76.9,69.1,30.06,ESE,113,1.8,4.0,77,0.00,,,0.13,WUHU216HW,2013-06-20 00:07:00,
2013-06-19 20:12:00,76.9,69.1,30.06,East,90,1.1,3.8,77,0.00,,,0.13,WUHU216HW,2013-06-20 00:12:00,
2013-06-19 20:17:00,76.7,69.3,30.06,NNW,338,0.0,1.6,78,0.00,,,0.13,WUHU216HW,2013-06-20 00:17:00,
2013-06-19 20:22:00,76.7,69.3,30.06,East,90,0.0,2.0,78,0.00,,,0.13,WUHU216HW,2013-06-20 00:22:00,
2013-06-19 20:27:00,76.5,69.1,30.07,East,90,0.0,2.0,78,0.00,,,0.13,WUHU216HW,2013-06-20 00:27:00,
2013-06-19 20:32:00,76.5,69.1,30.07,ESE,113,0.0,0.7,78,0.00,,,0.13,WUHU216HW,2013-06-20 00:32:00,
2013-06-19 20:37:00,76.1,68.8,30.07,East,90,0.4,0.7,78,0.00,,,0.13,WUHU216HW,2013-06-20 00:37:00,
2013-06-19 20:42:00,76.0,68.7,30.08,East,90,0.0,0.4,78,0.00,,,0.13,WUHU216HW,2013-06-20 00:42:00,
2013-06-19 20:47:00,75.8,68.9,30.08,East,90,0.0,0.4,79,0.00,,,0.13,WUHU216HW,2013-06-20 00:47:00,
2013-06-19 20:52:00,75.6,68.7,30.08,East,90,0.0,0.2,79,0.00,,,0.13,WUHU216HW,2013-06-20 00:52:00,
2013-06-19 20:57:00,75.2,68.4,30.08,East,90,0.0,0.2,79,0.00,,,0.13,WUHU216HW,2013-06-20 00:57:00,
2013-06-19 21:02:00,75.1,68.2,30.08,East,90,0.0,2.2,79,0.00,,,0.13,WUHU216HW,2013-06-20 01:02:00,
2013-06-19 21:07:00,74.9,68.1,30.08,North,0,0.0,2.2,79,0.00,,,0.13,WUHU216HW,2013-06-20 01:07:00,
2013-06-19 21:12:00,74.7,67.9,30.08,ENE,68,0.0,0.4,79,0.00,,,0.13,WUHU216HW,2013-06-20 01:12:00,
2013-06-19 21:17:00,74.5,67.2,30.09,ENE,68,0.0,0.4,78,0.00,,,0.13,WUHU216HW,2013-06-20 01:17:00,
2013-06-19 21:22:00,74.5,67.2,30.09,ENE,68,0.0,0.0,78,0.00,,,0.13,WUHU216HW,2013-06-20 01:22:00,
2013-06-19 21:27:00,74.2,66.9,30.09,East,90,0.0,0.7,78,0.00,,,0.13,WUHU216HW,2013-06-20 01:27:00,
2013-06-19 21:32:00,74.0,66.7,30.09,SSE,158,0.0,0.7,78,0.00,,,0.13,WUHU216HW,2013-06-20 01:32:00,
2013-06-19 21:37:00,73.8,67.0,30.09,ESE,113,0.2,0.4,79,0.00,,,0.13,WUHU216HW,2013-06-20 01:37:00,
2013-06-19 21:42:00,73.4,66.6,30.09,East,90,0.2,0.4,79,0.00,,,0.13,WUHU216HW,2013-06-20 01:42:00,
2013-06-19 21:48:00,73.4,66.6,30.10,SSE,158,0.0,0.7,79,0.00,,,0.13,WUHU216HW,2013-06-20 01:48:00,
2013-06-19 21:53:00,73.3,66.4,30.10,ENE,68,0.2,1.3,79,0.00,,,0.13,WUHU216HW,2013-06-20 01:53:00,
2013-06-19 21:58:00,73.3,66.4,30.10,SE,135,0.0,1.3,79,0.00,,,0.13,WUHU216HW,2013-06-20 01:58:00,
2013-06-19 22:03:00,73.1,66.3,30.11,ESE,113,0.0,0.7,79,0.00,,,0.13,WUHU216HW,2013-06-20 02:03:00,
2013-06-19 22:08:00,73.1,66.3,30.11,ENE,68,0.0,0.4,79,0.00,,,0.13,WUHU216HW,2013-06-20 02:08:00,
2013-06-19 22:13:00,72.9,66.1,30.11,ENE,68,0.0,0.4,79,0.00,,,0.13,WUHU216HW,2013-06-20 02:13:00,
2013-06-19 22:18:00,72.7,66.2,30.11,East,90,0.2,1.1,80,0.00,,,0.13,WUHU216HW,2013-06-20 02:18:00,
2013-06-19 22:23:00,72.5,66.1,30.11,SE,135,0.9,3.4,80,0.00,,,0.13,WUHU216HW,2013-06-20 02:23:00,
2013-06-19 22:28:00,72.4,65.5,30.11,East,90,2.0,3.4,79,0.00,,,0.13,WUHU216HW,2013-06-20 02:28:00,
2013-06-19 22:33:00,72.4,65.5,30.11,SE,135,1.6,2.5,79,0.00,,,0.13,WUHU216HW,2013-06-20 02:33:00,
2013-06-19 22:38:00,72.4,65.5,30.10,NE,45,0.0,3.4,79,0.00,,,0.13,WUHU216HW,2013-06-20 02:38:00,
2013-06-19 22:43:00,72.2,65.4,30.10,ESE,113,0.7,3.4,79,0.00,,,0.13,WUHU216HW,2013-06-20 02:43:00,
2013-06-19 22:48:00,72.2,65.4,30.11,ESE,113,0.4,2.2,79,0.00,,,0.13,WUHU216HW,2013-06-20 02:48:00,
2013-06-19 22:53:00,72.0,65.2,30.11,East,90,0.4,1.8,79,0.00,,,0.13,WUHU216HW,2013-06-20 02:53:00,
2013-06-19 22:58:00,72.0,65.2,30.11,ENE,68,0.0,1.8,79,0.00,,,0.13,WUHU216HW,2013-06-20 02:58:00,
2013-06-19 23:03:00,72.0,65.2,30.11,East,90,0.0,1.3,79,0.00,,,0.13,WUHU216HW,2013-06-20 03:03:00,
2013-06-19 23:08:00,71.8,65.0,30.11,ENE,68,0.0,1.1,79,0.00,,,0.13,WUHU216HW,2013-06-20 03:08:00,
2013-06-19 23:13:00,71.8,65.0,30.12,ENE,68,0.0,1.1,79,0.00,,,0.13,WUHU216HW,2013-06-20 03:13:00,
2013-06-19 23:18:00,71.6,64.8,30.12,ENE,68,0.0,0.4,79,0.00,,,0.13,WUHU216HW,2013-06-20 03:18:00,
2013-06-19 23:23:00,71.6,65.2,30.11,ENE,68,0.0,0.4,80,0.00,,,0.13,WUHU216HW,2013-06-20 03:23:00,
2013-06-19 23:28:00,71.3,64.8,30.11,North,0,0.0,0.4,80,0.00,,,0.13,WUHU216HW,2013-06-20 03:28:00,
2013-06-19 23:33:00,71.3,64.8,30.11,North,0,0.0,0.4,80,0.00,,,0.13,WUHU216HW,2013-06-20 03:33:00,
2013-06-19 23:38:00,71.1,65.0,30.11,NE,45,0.0,1.1,81,0.00,,,0.13,WUHU216HW,2013-06-20 03:38:00,
2013-06-19 23:43:00,70.9,64.8,30.11,NE,45,0.2,2.0,81,0.00,,,0.13,WUHU216HW,2013-06-20 03:43:00,
2013-06-19 23:48:00,70.9,64.8,30.11,East,90,0.4,2.0,81,0.00,,,0.13,WUHU216HW,2013-06-20 03:48:00,
2013-06-19 23:53:00,70.7,64.6,30.11,NNE,23,0.4,1.3,81,0.00,,,0.13,WUHU216HW,2013-06-20 03:53:00,
2013-06-19 23:58:00,70.6,64.5,30.11,North,0,0.0,1.3,81,0.00,,,0.13,WUHU216HW,2013-06-20 03:58:00,